Terminal Aerodrome Forecast
Issued by NWS

Home | Current Version | Previous Version | Graphics & Text | Print | Product List | Glossary On
Versions: 1 2 3 4 5 6 7 8 9 10 11 12 13 14
000
FTUS43 KFGF 242300
TAFBJI
TAF
KBJI 242322Z 2500/2524 31011KT P6SM OVC015
     FM250200 30006KT P6SM SKC
     FM251800 VRB03KT P6SM OVC030=

USA.gov is the U.S. government's official web portal to all federal, state and local government web resources and services.